This is the latest recevied weather packets stored in our database for station/object OK1FET-14. If no packets are shown the sender has not sent any weather packets the latest 1 day(s).
| Time | Temp. | Humidity | Pressure | Rain* | Wind** | Luminosity | Snow |
|---|---|---|---|---|---|---|---|
| 1778012636 | 11.67° C | 100% | 1007.7 hPa | - | 8.05 m/s, 240° | - | - |
| 1778012636 | 11.67° C | 100% | 1007.7 hPa | - | 8.05 m/s, 240° | - | - |
| 1778012636 | 11.67° C | 100% | 1007.7 hPa | - | 8.05 m/s, 240° | - | - |
| 1778012636 | 11.67° C | 100% | 1007.7 hPa | - | 8.05 m/s, 240° | - | - |
| 1778012356 | 12.22° C | 100% | 1007.9 hPa | - | 8.94 m/s, 227° | - | - |
| 1778012356 | 12.22° C | 100% | 1007.9 hPa | - | 8.94 m/s, 227° | - | - |
| 1778012356 | 12.22° C | 100% | 1007.9 hPa | - | 8.94 m/s, 227° | - | - |
| 1778012356 | 12.22° C | 100% | 1007.9 hPa | - | 8.94 m/s, 227° | - | - |
| 1778012076 | 13.33° C | 100% | 1007.7 hPa | - | 8.94 m/s, 221° | - | - |
| 1778012076 | 13.33° C | 100% | 1007.7 hPa | - | 8.94 m/s, 221° | - | - |
| 1778012076 | 13.33° C | 100% | 1007.7 hPa | - | 8.94 m/s, 221° | - | - |
| 1778012076 | 13.33° C | 100% | 1007.7 hPa | - | 8.94 m/s, 221° | - | - |
| 1778011795 | 13.33° C | 99% | 1007.7 hPa | - | 7.6 m/s, 210° | - | - |
| 1778011795 | 13.33° C | 99% | 1007.7 hPa | - | 7.6 m/s, 210° | - | - |
| 1778011795 | 13.33° C | 99% | 1007.7 hPa | - | 7.6 m/s, 210° | - | - |
| 1778011795 | 13.33° C | 99% | 1007.7 hPa | - | 7.6 m/s, 210° | - | - |
| 1778011640 | 13.89° C | 95% | 1007.8 hPa | - | 6.71 m/s, 210° | - | - |
| 1778011515 | 13.89° C | 95% | 1007.8 hPa | - | 6.71 m/s, 210° | - | - |
| 1778011515 | 13.89° C | 95% | 1007.8 hPa | - | 6.71 m/s, 210° | - | - |
| 1778011515 | 13.89° C | 95% | 1007.8 hPa | - | 6.71 m/s, 210° | - | - |
| 1778011235 | 14.44° C | 87% | 1007.6 hPa | - | 4.47 m/s, 219° | - | - |
| 1778011235 | 14.44° C | 87% | 1007.6 hPa | - | 4.47 m/s, 219° | - | - |
| 1778011235 | 14.44° C | 87% | 1007.6 hPa | - | 4.47 m/s, 219° | - | - |
| 1778011235 | 14.44° C | 87% | 1007.6 hPa | - | 4.47 m/s, 219° | - | - |
| 1778010954 | 15.56° C | 72% | 1007.2 hPa | - | 1.34 m/s, 353° | - | - |
* Rain since midnight (hover to see other rain measurements)
** Current wind speed in m/s (hover to see current wind gust speed)